createdAt,value
2018-10-09T00:01:28.401Z,98.36
2018-10-09T00:03:56.523Z,98.30
2018-10-09T00:06:24.695Z,98.02
2018-10-09T00:08:52.833Z,98.35
2018-10-09T00:11:20.962Z,98.12
2018-10-09T00:13:49.089Z,98.22
2018-10-09T00:16:17.237Z,98.10
2018-10-09T00:18:45.357Z,98.28
2018-10-09T00:21:13.467Z,98.66
2018-10-09T00:23:42.440Z,98.90
2018-10-09T00:26:10.600Z,98.67
2018-10-09T00:28:38.649Z,98.43
2018-10-09T00:31:06.796Z,98.66
2018-10-09T00:33:34.925Z,98.65
2018-10-09T00:36:03.048Z,98.54
2018-10-09T00:38:31.156Z,98.91
2018-10-09T00:40:59.315Z,98.93
2018-10-09T00:43:27.421Z,98.94
2018-10-09T00:45:55.553Z,98.56
2018-10-09T00:48:23.633Z,99.01
2018-10-09T00:50:51.799Z,99.08
2018-10-09T00:53:19.943Z,98.83
2018-10-09T00:55:48.082Z,99.47
2018-10-09T00:58:16.270Z,99.54
2018-10-09T01:00:44.442Z,99.37
2018-10-09T01:03:12.591Z,99.22
2018-10-09T01:05:40.741Z,99.26
2018-10-09T01:08:08.887Z,99.25
2018-10-09T01:10:37.049Z,98.86
2018-10-09T01:13:05.204Z,98.99
2018-10-09T01:15:33.600Z,98.93
2018-10-09T01:18:01.746Z,98.96
2018-10-09T01:20:33.629Z,99.10
2018-10-09T01:23:03.371Z,99.02
2018-10-09T01:25:31.619Z,98.96
2018-10-09T01:28:00.015Z,98.98
2018-10-09T01:30:28.150Z,99.14
2018-10-09T01:32:56.298Z,99.24
2018-10-09T01:35:24.505Z,99.18
2018-10-09T01:37:52.707Z,99.53
2018-10-09T01:40:20.824Z,99.47
2018-10-09T01:42:48.896Z,99.37
2018-10-09T01:45:17.000Z,99.38
2018-10-09T01:47:45.128Z,99.52
2018-10-09T01:50:13.260Z,99.38
2018-10-09T01:52:41.344Z,99.22
2018-10-09T01:55:09.624Z,98.79
2018-10-09T01:57:37.718Z,98.56
2018-10-09T02:00:07.640Z,98.73
2018-10-09T02:02:35.752Z,98.70
2018-10-09T02:05:03.900Z,98.85
2018-10-09T02:07:32.000Z,98.64
2018-10-09T02:10:00.128Z,98.68
2018-10-09T02:12:28.271Z,98.68
2018-10-09T02:14:56.362Z,98.72
2018-10-09T02:17:24.432Z,98.75
2018-10-09T02:19:52.533Z,99.10
2018-10-09T02:22:20.625Z,99.17
2018-10-09T02:24:48.752Z,99.21
2018-10-09T02:27:16.831Z,99.19
2018-10-09T02:29:44.924Z,99.17
2018-10-09T02:32:13.008Z,99.14
2018-10-09T02:34:41.104Z,99.28
2018-10-09T02:37:09.207Z,99.40
2018-10-09T02:39:37.316Z,99.37
2018-10-09T02:42:05.457Z,99.26
2018-10-09T02:44:33.539Z,99.36
2018-10-09T02:47:01.664Z,99.69
2018-10-09T02:49:29.738Z,99.28
2018-10-09T02:51:57.861Z,99.54
2018-10-09T02:54:25.980Z,99.76
2018-10-09T02:56:54.168Z,99.72
2018-10-09T02:59:22.240Z,99.86
2018-10-09T03:01:50.336Z,99.85
2018-10-09T03:04:18.452Z,99.82
2018-10-09T03:06:46.558Z,99.59
2018-10-09T03:09:14.666Z,99.50
2018-10-09T03:11:42.771Z,99.79
2018-10-09T03:14:10.873Z,99.65
2018-10-09T03:16:38.936Z,99.17
2018-10-09T03:19:07.065Z,99.60
2018-10-09T03:21:35.191Z,99.50
2018-10-09T03:24:03.280Z,99.77
2018-10-09T03:26:31.424Z,99.30
2018-10-09T03:28:59.552Z,99.18
2018-10-09T03:31:27.647Z,99.59
2018-10-09T03:33:55.777Z,99.60
2018-10-09T03:36:23.898Z,99.38
2018-10-09T03:38:52.044Z,99.49
2018-10-09T03:41:20.156Z,99.88
2018-10-09T03:43:48.278Z,100.00
2018-10-09T03:46:16.386Z,99.87
2018-10-09T03:48:44.519Z,99.87
2018-10-09T03:51:13.240Z,99.85
2018-10-09T03:53:41.751Z,100.00
2018-10-09T03:56:10.036Z,100.00
2018-10-09T03:58:38.293Z,100.00
2018-10-09T04:01:06.403Z,100.00
2018-10-09T04:03:34.488Z,100.00
2018-10-09T04:06:02.644Z,100.00
2018-10-09T04:08:30.728Z,100.00
2018-10-09T04:10:58.888Z,100.00
2018-10-09T04:13:26.998Z,99.87
2018-10-09T04:15:55.071Z,100.00
2018-10-09T04:18:23.212Z,99.87
2018-10-09T04:20:51.371Z,99.96
2018-10-09T04:23:19.464Z,100.00
2018-10-09T04:25:47.618Z,100.00
2018-10-09T04:28:15.720Z,100.00
2018-10-09T04:30:43.836Z,100.00
2018-10-09T04:33:11.996Z,100.00
2018-10-09T04:35:40.177Z,100.00
2018-10-09T04:38:08.229Z,99.82
2018-10-09T04:40:36.348Z,100.00
2018-10-09T04:43:04.460Z,100.00
2018-10-09T04:45:32.732Z,100.00
2018-10-09T04:48:01.477Z,100.00
2018-10-09T04:50:29.952Z,100.00
2018-10-09T04:52:58.109Z,100.00
2018-10-09T04:55:26.184Z,100.00
2018-10-09T04:57:54.292Z,100.00
2018-10-09T05:00:22.407Z,100.00
2018-10-09T05:02:50.496Z,100.00
2018-10-09T05:05:18.619Z,100.00
2018-10-09T05:07:46.703Z,100.00
2018-10-09T05:10:14.781Z,100.00
2018-10-09T05:12:42.921Z,100.00
2018-10-09T05:15:11.052Z,100.00
2018-10-09T05:17:39.271Z,100.00
2018-10-09T05:20:09.006Z,100.00
2018-10-09T05:22:37.132Z,100.00
2018-10-09T05:25:05.280Z,100.00
2018-10-09T05:27:33.391Z,100.00
2018-10-09T05:30:01.524Z,100.00
2018-10-09T05:32:29.624Z,100.00
2018-10-09T05:34:57.740Z,100.00
2018-10-09T05:37:25.876Z,100.00
2018-10-09T05:39:54.070Z,100.00
2018-10-09T05:42:22.283Z,100.00
2018-10-09T05:44:50.450Z,100.00
2018-10-09T05:47:18.596Z,100.00
2018-10-09T05:49:47.288Z,100.00
2018-10-09T05:52:15.440Z,99.89
2018-10-09T05:54:43.598Z,99.96
2018-10-09T05:57:11.758Z,99.96
2018-10-09T05:59:40.108Z,100.00
2018-10-09T06:02:08.699Z,100.00
2018-10-09T06:04:36.966Z,100.00
2018-10-09T06:07:05.096Z,100.00
2018-10-09T06:09:33.249Z,100.00
2018-10-09T06:12:01.400Z,100.00
2018-10-09T06:14:29.912Z,99.89
2018-10-09T06:16:58.067Z,99.48
2018-10-09T06:19:26.246Z,99.89
2018-10-09T06:21:54.413Z,100.00
2018-10-09T06:24:22.558Z,99.89
2018-10-09T06:26:50.780Z,99.74
2018-10-09T06:29:18.925Z,99.99
2018-10-09T06:31:47.080Z,100.00
2018-10-09T06:34:15.223Z,100.00
2018-10-09T06:36:43.327Z,100.00
2018-10-09T06:39:12.232Z,99.88
2018-10-09T06:41:41.623Z,99.47
2018-10-09T06:44:09.777Z,99.46
2018-10-09T06:46:37.908Z,99.87
2018-10-09T06:49:06.084Z,99.40
2018-10-09T06:51:34.196Z,99.12
2018-10-09T06:54:02.389Z,98.99
2018-10-09T06:56:30.445Z,98.55
2018-10-09T06:58:58.600Z,98.57
2018-10-09T07:01:26.775Z,98.28
2018-10-09T07:08:51.556Z,98.54
2018-10-09T07:11:19.778Z,97.46
2018-10-09T07:13:47.809Z,96.99
2018-10-09T07:16:15.937Z,96.72
2018-10-09T07:18:44.052Z,96.13
2018-10-09T07:21:13.197Z,95.36
2018-10-09T07:23:41.336Z,95.79
2018-10-09T07:26:09.448Z,95.75
2018-10-09T07:28:37.600Z,95.26
2018-10-09T07:31:05.752Z,94.88
2018-10-09T07:33:33.865Z,94.29
2018-10-09T07:36:01.964Z,93.36
2018-10-09T07:38:30.093Z,93.03
2018-10-09T07:40:58.264Z,92.71
2018-10-09T07:43:26.444Z,92.19
2018-10-09T07:45:54.571Z,91.97
2018-10-09T07:48:22.717Z,91.30
2018-10-09T07:50:50.845Z,91.25
2018-10-09T07:53:18.961Z,91.35
2018-10-09T07:55:47.085Z,90.07
2018-10-09T07:58:15.192Z,90.16
2018-10-09T08:00:43.320Z,89.32
2018-10-09T08:03:11.485Z,89.19
2018-10-09T08:05:39.625Z,89.07
2018-10-09T08:08:07.700Z,89.06
2018-10-09T08:10:35.925Z,87.90
2018-10-09T08:13:03.966Z,87.12
2018-10-09T08:15:32.097Z,87.04
2018-10-09T08:18:00.221Z,87.98
2018-10-09T08:20:28.348Z,87.04
2018-10-09T08:22:56.527Z,87.29
2018-10-09T08:25:24.599Z,87.29
2018-10-09T08:27:52.748Z,87.55
2018-10-09T08:30:20.856Z,87.25
2018-10-09T08:32:49.012Z,87.06
2018-10-09T08:35:17.162Z,87.42
2018-10-09T08:37:45.298Z,87.67
2018-10-09T08:40:13.510Z,87.76
2018-10-09T08:42:41.582Z,88.04
2018-10-09T08:45:09.713Z,87.17
2018-10-09T08:47:37.856Z,87.89
2018-10-09T08:50:05.968Z,87.42
2018-10-09T08:52:34.061Z,86.88
2018-10-09T08:55:02.190Z,87.33
2018-10-09T08:57:30.428Z,87.40
2018-10-09T08:59:58.508Z,87.30
2018-10-09T09:02:26.658Z,87.13
2018-10-09T09:04:54.773Z,86.79
2018-10-09T09:07:22.877Z,86.56
2018-10-09T09:09:51.041Z,86.92
2018-10-09T09:12:19.167Z,86.14
2018-10-09T09:14:47.293Z,86.13
2018-10-09T09:17:15.393Z,86.53
2018-10-09T09:19:43.529Z,85.40
2018-10-09T09:22:11.678Z,84.81
2018-10-09T09:24:39.817Z,85.22
2018-10-09T09:27:08.093Z,84.38
2018-10-09T09:29:36.080Z,83.81
2018-10-09T09:32:04.164Z,84.49
2018-10-09T09:34:32.268Z,84.49
2018-10-09T09:37:00.381Z,84.12
2018-10-09T09:39:28.505Z,83.75
2018-10-09T09:41:56.617Z,84.59
2018-10-09T09:44:24.756Z,84.81
2018-10-09T09:46:52.885Z,84.49
2018-10-09T09:49:21.023Z,83.94
2018-10-09T09:51:49.193Z,83.93
2018-10-09T09:54:17.292Z,83.45
2018-10-09T09:56:45.416Z,83.58
2018-10-09T09:59:13.583Z,83.16
2018-10-09T10:01:42.832Z,83.25
2018-10-09T10:04:11.596Z,81.65
2018-10-09T10:06:39.748Z,82.14
2018-10-09T10:09:08.765Z,81.59
2018-10-09T10:11:37.005Z,81.80
2018-10-09T10:14:05.184Z,80.48
2018-10-09T10:16:33.339Z,80.30
2018-10-09T10:19:08.352Z,79.37
2018-10-09T10:21:36.485Z,80.08
2018-10-09T10:24:04.636Z,78.25
2018-10-09T10:26:32.796Z,78.14
2018-10-09T10:29:01.359Z,78.71
2018-10-09T10:31:29.513Z,78.91
2018-10-09T10:33:57.664Z,77.67
2018-10-09T10:36:25.838Z,76.11
2018-10-09T10:38:53.945Z,76.08
2018-10-09T10:41:22.115Z,75.41
2018-10-09T10:43:50.271Z,76.26
2018-10-09T10:46:18.393Z,76.14
2018-10-09T10:49:01.648Z,75.94
2018-10-09T10:51:29.670Z,75.05
2018-10-09T10:53:58.030Z,75.70
2018-10-09T10:56:26.138Z,75.92
2018-10-09T10:58:54.261Z,75.24
2018-10-09T11:01:22.389Z,74.72
2018-10-09T11:03:50.517Z,74.87
2018-10-09T11:06:18.601Z,75.14
2018-10-09T11:08:47.202Z,74.73
2018-10-09T11:11:15.340Z,73.96
2018-10-09T11:13:44.117Z,74.07
2018-10-09T11:16:12.261Z,73.39
2018-10-09T11:18:40.393Z,73.49
2018-10-09T11:21:08.792Z,73.18
2018-10-09T11:23:36.848Z,73.50
2018-10-09T11:26:04.955Z,74.31
2018-10-09T11:28:33.072Z,72.30
2018-10-09T11:31:01.199Z,72.53
2018-10-09T11:33:29.473Z,72.10
2018-10-09T11:35:57.625Z,72.16
2018-10-09T11:38:25.776Z,72.30
2018-10-09T11:40:53.920Z,70.81
2018-10-09T11:43:22.028Z,71.54
2018-10-09T11:45:50.180Z,71.17
2018-10-09T11:48:18.288Z,71.36
2018-10-09T11:50:46.440Z,70.30
2018-10-09T11:53:14.578Z,69.95
2018-10-09T11:55:42.713Z,70.59
2018-10-09T11:58:10.807Z,70.59
2018-10-09T12:00:40.919Z,70.97
2018-10-09T12:03:09.020Z,72.06
2018-10-09T12:05:37.577Z,70.62
2018-10-09T12:08:05.790Z,71.16
2018-10-09T12:10:33.970Z,70.52
2018-10-09T12:13:02.327Z,70.79
2018-10-09T12:15:30.461Z,70.60
2018-10-09T12:17:58.616Z,68.56
2018-10-09T12:20:26.722Z,68.40
2018-10-09T12:22:54.856Z,68.66
2018-10-09T12:25:23.115Z,68.72
2018-10-09T12:27:51.356Z,66.32
2018-10-09T12:30:19.668Z,66.71
2018-10-09T12:32:47.849Z,65.17
2018-10-09T12:35:15.984Z,64.61
2018-10-09T12:37:44.340Z,63.78
2018-10-09T12:40:12.507Z,63.32
2018-10-09T12:42:40.663Z,62.70
2018-10-09T12:45:08.913Z,64.60
2018-10-09T12:47:37.101Z,61.96
2018-10-09T12:50:05.224Z,62.60
2018-10-09T12:52:33.356Z,61.92
2018-10-09T12:55:01.473Z,59.74
2018-10-09T12:57:29.777Z,60.49
2018-10-09T12:59:57.893Z,60.28
2018-10-09T13:02:26.057Z,59.32
2018-10-09T13:04:54.171Z,60.10
2018-10-09T13:07:22.276Z,59.25
2018-10-09T13:09:50.394Z,59.29
2018-10-09T13:12:18.608Z,57.80
2018-10-09T13:14:46.730Z,60.98
2018-10-09T13:17:14.989Z,57.91
2018-10-09T13:19:42.990Z,56.99
2018-10-09T13:22:11.307Z,55.84
2018-10-09T13:24:39.244Z,56.67
2018-10-09T13:27:07.678Z,55.67
2018-10-09T13:29:35.740Z,54.72
2018-10-09T13:32:03.861Z,54.59
2018-10-09T13:34:31.987Z,56.29
2018-10-09T13:37:00.124Z,56.77
2018-10-09T13:39:28.233Z,55.50
2018-10-09T13:41:56.350Z,55.86
2018-10-09T13:44:24.471Z,55.04
2018-10-09T13:46:53.940Z,55.03
2018-10-09T13:49:22.052Z,55.96
2018-10-09T13:51:50.325Z,57.15
2018-10-09T13:54:18.302Z,57.08
2018-10-09T13:56:46.429Z,57.38
2018-10-09T13:59:14.569Z,56.69
2018-10-09T14:01:42.689Z,57.01
2018-10-09T14:04:10.824Z,57.48
2018-10-09T14:06:39.399Z,57.83
2018-10-09T14:09:09.012Z,57.22
2018-10-09T14:11:37.399Z,57.70
2018-10-09T14:14:05.553Z,58.43
2018-10-09T14:16:33.673Z,58.21
2018-10-09T14:19:01.770Z,58.33
2018-10-09T14:21:29.896Z,59.23
2018-10-09T14:23:58.019Z,59.36
2018-10-09T14:26:26.163Z,58.97
2018-10-09T14:28:54.280Z,59.55
2018-10-09T14:31:22.398Z,58.76
2018-10-09T14:33:50.552Z,60.31
2018-10-09T14:36:18.784Z,59.46
2018-10-09T14:38:46.885Z,59.18
2018-10-09T14:41:15.000Z,58.17
2018-10-09T14:43:43.880Z,58.16
2018-10-09T14:46:12.007Z,58.61
2018-10-09T14:48:40.390Z,58.52
2018-10-09T14:51:08.673Z,58.85
2018-10-09T14:53:36.793Z,60.73
2018-10-09T14:56:05.009Z,58.80
2018-10-09T14:58:33.437Z,59.40
2018-10-09T15:01:01.556Z,60.75
2018-10-09T15:03:29.747Z,61.22
2018-10-09T15:05:57.828Z,61.44
2018-10-09T15:08:25.997Z,59.99
2018-10-09T15:10:54.140Z,61.30
2018-10-09T15:13:22.274Z,59.06
2018-10-09T15:15:50.393Z,60.26
2018-10-09T15:18:18.544Z,59.30
2018-10-09T15:20:46.670Z,59.69
2018-10-09T15:23:14.804Z,59.58
2018-10-09T15:25:42.955Z,59.91
2018-10-09T15:28:11.089Z,61.45
2018-10-09T15:30:39.316Z,60.18
2018-10-09T15:33:07.556Z,63.09
2018-10-09T15:35:35.707Z,62.72
2018-10-09T15:38:03.849Z,63.98
2018-10-09T15:40:32.020Z,64.75
2018-10-09T15:43:00.186Z,65.57
2018-10-09T15:45:28.314Z,66.57
2018-10-09T15:47:56.436Z,67.57
2018-10-09T15:50:24.539Z,65.55
2018-10-09T15:52:52.701Z,66.76
2018-10-09T15:55:20.752Z,68.78
2018-10-09T15:57:48.908Z,63.94
2018-10-09T16:00:17.032Z,65.66
2018-10-09T16:02:45.169Z,67.43
2018-10-09T16:05:13.288Z,67.19
2018-10-09T16:07:41.464Z,68.23
2018-10-09T16:10:09.679Z,67.63
2018-10-09T16:12:37.828Z,68.54
2018-10-09T16:15:05.965Z,70.54
2018-10-09T16:17:34.088Z,69.36
2018-10-09T16:20:02.244Z,71.58
2018-10-09T16:22:30.352Z,71.01
2018-10-09T16:24:58.500Z,71.24
2018-10-09T16:27:26.632Z,71.85
2018-10-09T16:29:54.748Z,71.32
2018-10-09T16:32:23.056Z,71.70
2018-10-09T16:34:51.005Z,72.21
2018-10-09T16:37:19.153Z,74.01
2018-10-09T16:39:47.288Z,74.64
2018-10-09T16:42:15.457Z,75.00
2018-10-09T16:44:43.596Z,75.07
2018-10-09T16:47:11.760Z,75.48
2018-10-09T16:49:39.898Z,76.61
2018-10-09T16:52:08.079Z,76.83
2018-10-09T16:54:36.289Z,76.46
2018-10-09T16:57:04.444Z,76.27
2018-10-09T16:59:32.604Z,76.84
2018-10-09T17:02:00.746Z,76.19
2018-10-09T17:04:28.849Z,75.94
2018-10-09T17:06:56.958Z,76.00
2018-10-09T17:09:25.067Z,76.84
2018-10-09T17:11:53.156Z,75.99
2018-10-09T17:14:21.259Z,76.79
2018-10-09T17:16:49.352Z,77.46
2018-10-09T17:19:17.451Z,77.99
2018-10-09T17:21:45.576Z,78.56
2018-10-09T17:24:13.700Z,78.99
2018-10-09T17:26:41.852Z,79.80
2018-10-09T17:29:09.948Z,80.04
2018-10-09T17:31:38.076Z,79.83
2018-10-09T17:34:06.271Z,80.94
2018-10-09T17:36:34.357Z,81.50
2018-10-09T17:39:02.478Z,81.96
2018-10-09T17:41:30.547Z,82.34
2018-10-09T17:43:59.684Z,82.67
2018-10-09T17:46:27.908Z,82.86
2018-10-09T17:48:55.928Z,81.75
2018-10-09T17:51:24.031Z,82.94
2018-10-09T17:53:52.179Z,83.20
2018-10-09T17:56:20.235Z,83.14
2018-10-09T17:58:48.423Z,82.92
2018-10-09T18:01:16.548Z,83.95
2018-10-09T18:03:44.695Z,84.06
2018-10-09T18:06:12.853Z,85.07
2018-10-09T18:08:41.255Z,86.13
2018-10-09T18:11:09.314Z,86.23
2018-10-09T18:13:37.449Z,85.75
2018-10-09T18:16:05.652Z,85.63
2018-10-09T18:18:33.780Z,85.61
2018-10-09T18:21:01.918Z,85.89
2018-10-09T18:23:30.041Z,86.67
2018-10-09T18:25:58.448Z,86.75
2018-10-09T18:28:26.552Z,87.30
2018-10-09T18:30:54.696Z,87.38
2018-10-09T18:33:22.947Z,86.92
2018-10-09T18:35:50.973Z,86.43
2018-10-09T18:38:19.084Z,86.16
2018-10-09T18:40:47.380Z,86.28
2018-10-09T18:43:15.411Z,86.15
2018-10-09T18:45:44.382Z,86.65
2018-10-09T18:48:12.519Z,87.46
2018-10-09T18:50:40.649Z,87.72
2018-10-09T18:53:08.789Z,87.63
2018-10-09T18:55:36.930Z,87.08
2018-10-09T18:58:05.072Z,87.04
2018-10-09T19:00:33.206Z,87.37
2018-10-09T19:03:01.383Z,87.19
2018-10-09T19:05:29.538Z,87.53
2018-10-09T19:07:57.984Z,87.50
2018-10-09T19:10:26.140Z,87.83
2018-10-09T19:12:54.281Z,87.69
2018-10-09T19:15:22.413Z,88.29
2018-10-09T19:17:50.547Z,88.21
2018-10-09T19:20:18.672Z,88.17
2018-10-09T19:22:46.924Z,88.16
2018-10-09T19:25:15.081Z,88.50
2018-10-09T19:27:43.352Z,88.97
2018-10-09T19:30:11.528Z,89.25
2018-10-09T19:32:39.710Z,89.84
2018-10-09T19:35:07.797Z,89.74
2018-10-09T19:37:35.932Z,89.79
2018-10-09T19:40:04.364Z,90.50
2018-10-09T19:42:32.561Z,90.42
2018-10-09T19:45:00.743Z,90.75
2018-10-09T19:47:33.118Z,90.50
2018-10-09T19:50:01.290Z,90.61
2018-10-09T19:52:29.495Z,90.99
2018-10-09T19:54:57.728Z,90.84
2018-10-09T19:57:25.965Z,90.64
2018-10-09T19:59:54.144Z,90.34
2018-10-09T20:02:22.331Z,90.21
2018-10-09T20:04:50.449Z,90.05
2018-10-09T20:07:18.612Z,90.06
2018-10-09T20:09:46.861Z,90.58
2018-10-09T20:12:15.042Z,91.55
2018-10-09T20:14:43.220Z,91.55
2018-10-09T20:17:11.396Z,90.99
2018-10-09T20:19:39.565Z,90.76
2018-10-09T20:22:11.376Z,91.05
2018-10-09T20:24:39.798Z,91.68
2018-10-09T20:27:07.997Z,92.29
2018-10-09T20:29:36.112Z,92.19
2018-10-09T20:32:04.252Z,92.27
2018-10-09T20:34:32.416Z,92.20
2018-10-09T20:37:00.572Z,92.21
2018-10-09T20:39:28.748Z,92.23
2018-10-09T20:41:56.990Z,92.69
2018-10-09T20:44:25.033Z,92.61
2018-10-09T20:46:53.224Z,92.37
2018-10-09T20:49:21.340Z,92.72
2018-10-09T20:51:49.486Z,93.09
2018-10-09T20:54:17.673Z,92.96
2018-10-09T20:56:45.823Z,93.42
2018-10-09T20:59:13.969Z,92.94
2018-10-09T21:01:42.084Z,93.10
2018-10-09T21:04:10.253Z,93.00
2018-10-09T21:06:38.409Z,92.63
2018-10-09T21:09:06.987Z,92.82
2018-10-09T21:11:35.156Z,92.74
2018-10-09T21:14:03.284Z,93.05
2018-10-09T21:16:31.397Z,93.26
2018-10-09T21:18:59.561Z,93.66
2018-10-09T21:21:27.801Z,93.80
2018-10-09T21:23:55.941Z,94.16
2018-10-09T21:26:24.060Z,94.02
2018-10-09T21:28:52.180Z,93.66
2018-10-09T21:31:20.348Z,94.18
2018-10-09T21:33:48.492Z,94.22
2018-10-09T21:36:16.631Z,94.15
2018-10-09T21:38:44.740Z,94.31
2018-10-09T21:41:12.877Z,94.51
2018-10-09T21:48:39.107Z,94.58
2018-10-09T21:51:07.270Z,94.63
2018-10-09T21:53:35.472Z,95.36
2018-10-09T21:56:03.624Z,95.36
2018-10-09T21:58:32.404Z,94.90
2018-10-09T22:01:05.973Z,95.16
2018-10-09T22:03:34.148Z,95.63
2018-10-09T22:06:02.294Z,95.63
2018-10-09T22:08:30.432Z,95.80
2018-10-09T22:10:58.937Z,96.13
2018-10-09T22:13:27.100Z,96.11
2018-10-09T22:15:55.244Z,96.01
2018-10-09T22:18:23.368Z,96.05
2018-10-09T22:20:51.503Z,96.40
2018-10-09T22:23:19.815Z,96.39
2018-10-09T22:25:47.928Z,96.32
2018-10-09T22:28:16.039Z,96.71
2018-10-09T22:30:44.175Z,96.67
2018-10-09T22:33:12.285Z,96.61
2018-10-09T22:35:40.412Z,96.58
2018-10-09T22:38:08.518Z,96.57
2018-10-09T22:40:36.619Z,96.88
2018-10-09T22:43:04.861Z,97.03
2018-10-09T22:45:32.987Z,97.06
2018-10-09T22:48:01.108Z,97.11
2018-10-09T22:50:29.205Z,97.42
2018-10-09T22:52:57.316Z,97.48
2018-10-09T22:55:25.448Z,97.50
2018-10-09T22:58:00.338Z,96.50
2018-10-09T23:00:28.426Z,95.93
2018-10-09T23:02:56.550Z,97.11
2018-10-09T23:05:24.661Z,98.15
2018-10-09T23:07:53.328Z,97.37
2018-10-09T23:10:21.436Z,97.26
2018-10-09T23:12:49.574Z,96.71
2018-10-09T23:15:17.657Z,95.04
2018-10-09T23:17:45.800Z,95.21
2018-10-09T23:20:13.913Z,95.82
2018-10-09T23:22:42.067Z,96.58
2018-10-09T23:25:11.042Z,97.23
2018-10-09T23:27:39.244Z,98.09
2018-10-09T23:30:08.151Z,98.51
2018-10-09T23:32:36.267Z,99.21
2018-10-09T23:35:04.576Z,99.44
2018-10-09T23:37:32.754Z,99.72
2018-10-09T23:40:00.923Z,98.05
2018-10-09T23:42:29.226Z,96.41
2018-10-09T23:44:57.349Z,95.84
2018-10-09T23:47:25.458Z,95.76
2018-10-09T23:49:53.562Z,97.00
2018-10-09T23:52:21.692Z,98.04
2018-10-09T23:54:49.792Z,98.40
2018-10-09T23:57:17.942Z,98.64
2018-10-09T23:59:45.992Z,98.47
